Ames, South Dakota
Current Conditions -  °F | °C
As of 12:53 AM on Saturday 01 Nov 2014 (Local Time) from KPIR Reporting Station
Clear Clear  
Wind Chill: 24°   Ceiling: Unl
Heat Index: 36°   Visibility: 10mi
Dew Point: 15°   Wind: 24mph
Humidity: 43%   Direction: 140°SE
Pressure: 30.11"   Gusts: 33mph
Location:  44.3693°N, 100.04°W
Report Text: KPIR 010553Z AUTO 14021G29KT 10SM CLR 02/M09 A3011 RMK AO2 PK WND 14033/0513 SLP209 T00221094 10039 20017 400671100 58025
Loading
Personal Weather Stations






























Interactive Weather Map
Tropical Storm Tracking
New forecast layout! Learn more

10-Day Weather Forecast

Advertisements
Track Severe Weather on mobile